Time;durP1;ratioP1;P1;durP2;ratioP2;P2;SDS_P1;SDS_P2;PMS_P1;PMS_P2;Temp;Humidity;BMP_temperature;BMP_pressure;BME280_temperature;BME280_humidity;BME280_pressure;Samples;Min_cycle;Max_cycle;Signal;HPM_P1;HPM_P2
2022/05/08 00:02:23;;;;;;;8.77;7.93;;;;;;;;;;4921195;29;20028;-88
2022/05/08 00:04:52;;;;;;;10.32;8.65;;;;;;;;;;4919674;29;20087;-90
2022/05/08 00:07:23;;;;;;;8.77;7.90;;;;;;;;;;4919713;29;20034;-90
2022/05/08 00:09:49;;;;;;;11.07;7.63;;;;;;;;;;4920290;29;20058;-90
2022/05/08 00:12:16;;;;;;;9.85;7.75;;;;;;;;;;4919984;29;20028;-90
2022/05/08 00:14:43;;;;;;;8.65;7.15;;;;;;;;;;4920003;29;20398;-89
2022/05/08 00:17:13;;;;;;;9.48;7.28;;;;;;;;;;4920084;29;20044;-91
2022/05/08 00:19:40;;;;;;;8.95;7.25;;;;;;;;;;4926267;29;20485;-90
2022/05/08 00:22:06;;;;;;;8.13;7.32;;;;;;;;;;4918701;29;20501;-89
2022/05/08 00:24:33;;;;;;;8.80;7.40;;;;;;;;;;4919179;29;20119;-89
2022/05/08 00:26:59;;;;;;;7.97;7.28;;;;;;;;;;4919806;29;20458;-91
2022/05/08 00:29:25;;;;;;;7.95;7.05;;;;;;;;;;4919219;29;20028;-90
2022/05/08 00:31:52;;;;;;;7.97;7.18;;;;;;;;;;4919100;29;20100;-87
2022/05/08 00:34:18;;;;;;;7.60;6.82;;;;;;;;;;4918916;29;20028;-91
2022/05/08 00:36:44;;;;;;;7.50;6.72;;;;;;;;;;4918862;29;20060;-90
2022/05/08 00:39:10;;;;;;;10.48;7.40;;;;;;;;;;4918890;29;20032;-90
2022/05/08 00:41:37;;;;;;;9.55;8.65;;;;;;;;;;4918880;29;20032;-91
2022/05/08 00:44:03;;;;;;;8.70;7.78;;;;;;;;;;4919181;29;20127;-90
2022/05/08 00:46:30;;;;;;;11.45;8.07;;;;;;;;;;4919281;29;20496;-89
2022/05/08 00:48:56;;;;;;;8.43;7.50;;;;;;;;;;4919028;29;20043;-90
2022/05/08 00:51:22;;;;;;;7.93;7.10;;;;;;;;;;4918931;29;20024;-89
2022/05/08 00:53:50;;;;;;;9.45;7.60;;;;;;;;;;4918856;29;20028;-89
2022/05/08 00:56:17;;;;;;;7.93;7.20;;;;;;;;;;4924062;29;20028;-88
2022/05/08 00:58:44;;;;;;;8.40;7.40;;;;;;;;;;4918430;29;20047;-90
2022/05/08 01:01:10;;;;;;;10.55;8.00;;;;;;;;;;4918365;29;20028;-89
2022/05/08 01:03:37;;;;;;;8.50;7.70;;;;;;;;;;4919105;29;20028;-88
2022/05/08 01:06:07;;;;;;;8.68;7.78;;;;;;;;;;4918444;29;20028;-89
2022/05/08 01:08:37;;;;;;;9.65;7.70;;;;;;;;;;4918484;29;20024;-90
2022/05/08 01:11:05;;;;;;;8.23;7.43;;;;;;;;;;4918561;29;20500;-90
2022/05/08 01:13:31;;;;;;;8.65;7.80;;;;;;;;;;4918247;29;20123;-89
2022/05/08 01:15:57;;;;;;;8.73;7.78;;;;;;;;;;4918210;29;20553;-90
2022/05/08 01:18:24;;;;;;;8.98;8.07;;;;;;;;;;4918016;29;20036;-90
2022/05/08 01:20:50;;;;;;;7.97;7.28;;;;;;;;;;4918075;29;20028;-88
2022/05/08 01:23:18;;;;;;;10.43;8.13;;;;;;;;;;4917215;29;20056;-91
2022/05/08 01:25:46;;;;;;;10.18;9.18;;;;;;;;;;4918159;29;20478;-90
2022/05/08 01:28:12;;;;;;;9.80;8.55;;;;;;;;;;4918212;29;20487;-88
2022/05/08 01:30:42;;;;;;;10.90;9.80;;;;;;;;;;4921354;29;20038;-90
2022/05/08 01:33:08;;;;;;;9.20;8.40;;;;;;;;;;4918109;29;20602;-89
2022/05/08 01:35:35;;;;;;;9.23;8.32;;;;;;;;;;4917881;29;20031;-89
2022/05/08 01:38:02;;;;;;;9.75;8.15;;;;;;;;;;4917755;29;20068;-89
2022/05/08 01:40:30;;;;;;;8.90;8.00;;;;;;;;;;4917847;29;20028;-91
2022/05/08 01:42:56;;;;;;;9.45;7.85;;;;;;;;;;4917696;29;20043;-89
2022/05/08 01:45:22;;;;;;;10.40;7.90;;;;;;;;;;4917755;29;20115;-89
2022/05/08 01:50:32;;;;;;;8.73;7.53;;;;;;;;;;4919109;29;20406;-90
2022/05/08 01:52:59;;;;;;;9.18;8.35;;;;;;;;;;4917868;29;20545;-90
2022/05/08 01:55:25;;;;;;;9.88;8.43;;;;;;;;;;4917271;29;20087;-87
2022/05/08 01:57:53;;;;;;;9.65;8.65;;;;;;;;;;4917817;29;20036;-89
2022/05/08 02:00:19;;;;;;;9.23;8.27;;;;;;;;;;4917639;29;20028;-86
2022/05/08 02:02:48;;;;;;;9.38;7.88;;;;;;;;;;4918468;29;20118;-90
2022/05/08 02:05:17;;;;;;;8.80;7.93;;;;;;;;;;4924710;29;20114;-90
2022/05/08 02:07:45;;;;;;;9.63;8.57;;;;;;;;;;4917798;29;20039;-90
2022/05/08 02:10:11;;;;;;;8.70;7.80;;;;;;;;;;4917518;29;20028;-90
2022/05/08 02:12:37;;;;;;;10.43;9.30;;;;;;;;;;4917307;29;20028;-89
2022/05/08 02:15:05;;;;;;;9.00;8.02;;;;;;;;;;4918514;29;20028;-86
2022/05/08 02:17:31;;;;;;;8.85;7.90;;;;;;;;;;4917331;29;20055;-88
2022/05/08 02:19:57;;;;;;;11.35;8.63;;;;;;;;;;4917273;29;20036;-88
2022/05/08 02:22:23;;;;;;;9.13;7.97;;;;;;;;;;4917030;29;20047;-89
2022/05/08 02:24:51;;;;;;;9.32;7.90;;;;;;;;;;4917081;29;20024;-88
2022/05/08 02:27:17;;;;;;;12.77;7.78;;;;;;;;;;4917135;29;20500;-89
2022/05/08 02:29:43;;;;;;;9.23;7.40;;;;;;;;;;4917131;29;20091;-89
2022/05/08 02:32:09;;;;;;;8.80;8.00;;;;;;;;;;4917060;29;20032;-89
2022/05/08 02:34:36;;;;;;;8.93;8.07;;;;;;;;;;4917364;29;20024;-89
2022/05/08 02:37:02;;;;;;;8.27;7.45;;;;;;;;;;4924718;29;20036;-88
2022/05/08 02:39:28;;;;;;;10.88;8.05;;;;;;;;;;4917211;29;20039;-89
2022/05/08 02:41:54;;;;;;;12.20;8.15;;;;;;;;;;4917011;29;20032;-88
2022/05/08 02:44:20;;;;;;;8.40;7.50;;;;;;;;;;4916909;29;20032;-89
2022/05/08 02:46:48;;;;;;;7.60;6.90;;;;;;;;;;4917080;29;20068;-89
2022/05/08 02:49:14;;;;;;;11.48;7.97;;;;;;;;;;4917180;29;20032;-89
2022/05/08 02:51:41;;;;;;;9.68;8.00;;;;;;;;;;4916948;29;20028;-88
2022/05/08 02:54:07;;;;;;;9.70;8.85;;;;;;;;;;4918011;29;20501;-87
2022/05/08 02:59:17;;;;;;;10.90;8.43;;;;;;;;;;4918815;29;20075;-89
2022/05/08 03:01:43;;;;;;;8.73;7.90;;;;;;;;;;4916757;29;20485;-89
2022/05/08 03:04:09;;;;;;;8.90;7.50;;;;;;;;;;4918101;29;20056;-88
2022/05/08 03:06:36;;;;;;;8.80;7.57;;;;;;;;;;4916822;29;20036;-87
2022/05/08 03:09:03;;;;;;;8.45;7.32;;;;;;;;;;4917920;29;20028;-87
2022/05/08 03:11:29;;;;;;;9.98;7.93;;;;;;;;;;4920037;29;20067;-89
2022/05/08 03:13:57;;;;;;;8.95;7.63;;;;;;;;;;4916666;29;20028;-90
2022/05/08 03:16:23;;;;;;;7.72;6.82;;;;;;;;;;4916550;29;20032;-88
2022/05/08 03:18:50;;;;;;;10.13;7.68;;;;;;;;;;4917287;29;20394;-88
2022/05/08 03:21:16;;;;;;;8.05;7.35;;;;;;;;;;4916621;29;20028;-89
2022/05/08 03:23:43;;;;;;;10.10;7.57;;;;;;;;;;4916433;29;20059;-89
2022/05/08 03:26:09;;;;;;;8.40;6.75;;;;;;;;;;4916887;29;20032;-89
2022/05/08 03:28:38;;;;;;;8.93;8.02;;;;;;;;;;4917615;29;20032;-88
2022/05/08 03:31:04;;;;;;;8.35;7.55;;;;;;;;;;4917906;29;20026;-89
2022/05/08 03:33:31;;;;;;;8.48;7.65;;;;;;;;;;4917490;29;20126;-88
2022/05/08 03:35:58;;;;;;;8.05;7.35;;;;;;;;;;4916503;29;20080;-88
2022/05/08 03:38:25;;;;;;;8.45;7.47;;;;;;;;;;4926258;29;20040;-89
2022/05/08 03:40:51;;;;;;;8.73;7.38;;;;;;;;;;4916924;29;20028;-89
2022/05/08 03:43:17;;;;;;;9.60;8.02;;;;;;;;;;4932119;29;20473;-89
2022/05/08 03:45:43;;;;;;;11.13;7.30;;;;;;;;;;4916540;29;20032;-89
2022/05/08 03:48:10;;;;;;;8.73;7.55;;;;;;;;;;4919043;29;20024;-88
2022/05/08 03:50:36;;;;;;;8.52;7.72;;;;;;;;;;4919865;29;20529;-88
2022/05/08 03:53:03;;;;;;;7.70;7.00;;;;;;;;;;4920787;29;20032;-88
2022/05/08 03:55:33;;;;;;;10.38;8.20;;;;;;;;;;4919745;29;20500;-90
2022/05/08 03:57:59;;;;;;;9.15;7.28;;;;;;;;;;4919550;29;20044;-88
2022/05/08 04:00:25;;;;;;;8.88;7.60;;;;;;;;;;4921120;29;20401;-89
2022/05/08 04:02:51;;;;;;;7.85;7.05;;;;;;;;;;4919850;29;20024;-88
2022/05/08 04:05:17;;;;;;;8.98;6.85;;;;;;;;;;4919565;29;20473;-89
2022/05/08 04:07:44;;;;;;;11.00;7.47;;;;;;;;;;4919385;29;20127;-85
2022/05/08 04:10:10;;;;;;;8.45;7.63;;;;;;;;;;4919407;29;20049;-89
2022/05/08 04:12:36;;;;;;;8.25;7.55;;;;;;;;;;4919666;29;20039;-89
2022/05/08 04:15:04;;;;;;;10.13;7.78;;;;;;;;;;4925553;29;20039;-89
2022/05/08 04:17:31;;;;;;;10.63;8.68;;;;;;;;;;4919446;29;20123;-88
2022/05/08 04:19:58;;;;;;;9.77;8.77;;;;;;;;;;4919328;29;20056;-89
2022/05/08 04:25:10;;;;;;;8.32;7.47;;;;;;;;;;4920733;29;20039;-89
2022/05/08 04:27:37;;;;;;;7.00;6.30;;;;;;;;;;4935036;29;20043;-89
2022/05/08 04:30:03;;;;;;;7.03;6.32;;;;;;;;;;4919077;29;20134;-90
2022/05/08 04:32:30;;;;;;;7.97;6.88;;;;;;;;;;4919012;29;20043;-85
2022/05/08 04:34:56;;;;;;;10.95;7.07;;;;;;;;;;4919027;29;20054;-89
2022/05/08 04:37:22;;;;;;;9.95;6.68;;;;;;;;;;4920220;29;20524;-89
2022/05/08 04:39:48;;;;;;;11.23;7.90;;;;;;;;;;4918970;29;20030;-89
2022/05/08 04:42:14;;;;;;;7.22;6.53;;;;;;;;;;4919317;29;20040;-89
2022/05/08 04:44:40;;;;;;;10.18;7.40;;;;;;;;;;4919230;29;20119;-90
2022/05/08 04:47:07;;;;;;;7.63;6.65;;;;;;;;;;4923532;29;20078;-88
2022/05/08 04:49:33;;;;;;;7.40;6.70;;;;;;;;;;4919005;29;20046;-91
2022/05/08 04:51:59;;;;;;;7.65;6.20;;;;;;;;;;4920148;29;20502;-89
2022/05/08 04:54:25;;;;;;;7.30;6.57;;;;;;;;;;4918593;29;20020;-89
2022/05/08 04:56:54;;;;;;;7.82;6.65;;;;;;;;;;4918595;29;20450;-87
2022/05/08 04:59:20;;;;;;;6.97;6.28;;;;;;;;;;4918448;29;20032;-88
2022/05/08 05:01:46;;;;;;;7.05;6.35;;;;;;;;;;4918903;29;20071;-87
2022/05/08 05:04:13;;;;;;;8.52;6.70;;;;;;;;;;4918799;29;20545;-88
2022/05/08 05:06:42;;;;;;;8.48;6.72;;;;;;;;;;4922576;29;20028;-86
2022/05/08 05:09:08;;;;;;;7.43;6.65;;;;;;;;;;4932006;29;20056;-88
2022/05/08 05:11:34;;;;;;;8.70;6.72;;;;;;;;;;4929573;29;20474;-85
2022/05/08 05:14:00;;;;;;;8.20;7.32;;;;;;;;;;4918243;29;20028;-88
2022/05/08 05:16:26;;;;;;;10.18;8.65;;;;;;;;;;4919319;29;20038;-88
2022/05/08 05:21:37;;;;;;;8.60;7.07;;;;;;;;;;4921644;29;20570;-88
2022/05/08 05:24:03;;;;;;;13.23;8.68;;;;;;;;;;4922803;29;20130;-88
2022/05/08 05:26:29;;;;;;;7.32;6.63;;;;;;;;;;4921421;29;20106;-88
2022/05/08 05:28:55;;;;;;;10.63;7.93;;;;;;;;;;4921065;29;20481;-88
2022/05/08 05:31:22;;;;;;;9.18;7.70;;;;;;;;;;4937422;29;20111;-89
2022/05/08 05:33:48;;;;;;;10.48;8.52;;;;;;;;;;4938186;29;20027;-89
2022/05/08 05:36:14;;;;;;;8.93;6.75;;;;;;;;;;4921657;29;20232;-87
2022/05/08 05:38:40;;;;;;;7.00;6.30;;;;;;;;;;4921551;29;20031;-87
2022/05/08 05:41:07;;;;;;;10.20;8.70;;;;;;;;;;4937174;29;20035;-85
2022/05/08 05:43:34;;;;;;;10.65;8.88;;;;;;;;;;4937402;29;20465;-90
2022/05/08 05:48:45;;;;;;;9.05;7.40;;;;;;;;;;4935103;29;20091;-90
2022/05/08 05:51:11;;;;;;;8.60;6.82;;;;;;;;;;4920501;29;20485;-90
2022/05/08 05:53:37;;;;;;;8.30;6.60;;;;;;;;;;4920616;29;20026;-87
2022/05/08 05:56:09;;;;;;;8.80;6.78;;;;;;;;;;4920851;29;20028;-83
2022/05/08 05:58:35;;;;;;;7.60;6.90;;;;;;;;;;4937756;29;20028;-85
2022/05/08 06:01:01;;;;;;;10.82;8.00;;;;;;;;;;4927144;29;20066;-85
2022/05/08 06:03:27;;;;;;;8.93;7.25;;;;;;;;;;4937199;29;20035;-86
2022/05/08 06:05:54;;;;;;;11.35;8.20;;;;;;;;;;4935867;29;20028;-86
2022/05/08 06:08:20;;;;;;;8.32;7.47;;;;;;;;;;4936345;29;20024;-86
2022/05/08 06:10:46;;;;;;;10.48;6.82;;;;;;;;;;4935663;29;20032;-86
2022/05/08 06:13:12;;;;;;;7.05;6.35;;;;;;;;;;4936142;29;20059;-85
2022/05/08 06:15:38;;;;;;;8.90;7.97;;;;;;;;;;4936865;29;20019;-85
2022/05/08 06:18:05;;;;;;;7.95;7.03;;;;;;;;;;4936887;29;20046;-84
2022/05/08 06:20:32;;;;;;;8.93;7.65;;;;;;;;;;4936788;29;20020;-85
2022/05/08 06:22:58;;;;;;;11.73;7.15;;;;;;;;;;4936592;29;20066;-81
2022/05/08 06:25:24;;;;;;;10.35;8.15;;;;;;;;;;4935743;29;20070;-82
2022/05/08 06:27:50;;;;;;;10.45;8.50;;;;;;;;;;4935224;29;20050;-83
2022/05/08 06:30:16;;;;;;;11.85;8.27;;;;;;;;;;4932161;29;20422;-83
2022/05/08 06:32:42;;;;;;;10.15;7.95;;;;;;;;;;4917783;29;20036;-84
2022/05/08 06:35:09;;;;;;;10.95;8.50;;;;;;;;;;4918341;29;20501;-83
2022/05/08 06:37:35;;;;;;;9.98;8.80;;;;;;;;;;4916785;29;20039;-84
2022/05/08 06:40:01;;;;;;;13.57;8.55;;;;;;;;;;4917531;29;20024;-82
2022/05/08 06:42:27;;;;;;;9.73;7.80;;;;;;;;;;4916221;29;20516;-83
2022/05/08 06:44:53;;;;;;;12.10;8.82;;;;;;;;;;4917725;29;20057;-82
2022/05/08 06:47:19;;;;;;;10.77;8.48;;;;;;;;;;4917418;29;20024;-85
2022/05/08 06:49:45;;;;;;;11.90;9.05;;;;;;;;;;4916124;29;20470;-84
2022/05/08 06:52:11;;;;;;;11.35;8.82;;;;;;;;;;4917210;29;20044;-83
2022/05/08 06:54:37;;;;;;;12.60;8.43;;;;;;;;;;4916285;29;20055;-87
2022/05/08 06:57:04;;;;;;;10.55;7.97;;;;;;;;;;4916964;29;20480;-82
2022/05/08 07:02:15;;;;;;;13.10;9.40;;;;;;;;;;4917307;29;20500;-87
2022/05/08 07:04:42;;;;;;;10.10;7.65;;;;;;;;;;4916222;29;20135;-82
2022/05/08 07:07:09;;;;;;;12.43;10.57;;;;;;;;;;4917206;29;20470;-86
2022/05/08 07:09:35;;;;;;;10.38;9.00;;;;;;;;;;4916189;29;20497;-88
2022/05/08 07:12:01;;;;;;;12.20;10.90;;;;;;;;;;4916651;29;20024;-87
2022/05/08 07:14:28;;;;;;;10.82;9.07;;;;;;;;;;4926923;29;20036;-96
2022/05/08 07:16:57;;;;;;;11.43;10.30;;;;;;;;;;4916912;29;20367;-86
2022/05/08 07:19:24;;;;;;;11.18;10.15;;;;;;;;;;4916545;29;20036;-85
2022/05/08 07:21:50;;;;;;;11.88;10.07;;;;;;;;;;4916708;29;20029;-92
2022/05/08 07:24:16;;;;;;;12.48;9.77;;;;;;;;;;4919611;29;20052;-89
2022/05/08 07:26:45;;;;;;;11.88;9.82;;;;;;;;;;4920052;29;20028;-82
2022/05/08 07:29:11;;;;;;;9.80;8.77;;;;;;;;;;4920145;29;20028;-85
2022/05/08 07:31:38;;;;;;;11.25;9.73;;;;;;;;;;4919774;29;20144;-85
2022/05/08 07:36:49;;;;;;;13.85;9.88;;;;;;;;;;4921005;29;20039;-83
2022/05/08 07:39:15;;;;;;;13.80;10.80;;;;;;;;;;4920820;29;20039;-83
2022/05/08 07:41:41;;;;;;;13.70;10.35;;;;;;;;;;4920199;29;20067;-85
2022/05/08 07:44:07;;;;;;;12.20;10.68;;;;;;;;;;4920093;29;20127;-85
2022/05/08 07:46:34;;;;;;;10.07;9.18;;;;;;;;;;4921364;29;20059;-83
2022/05/08 07:49:03;;;;;;;10.98;9.75;;;;;;;;;;4920265;29;20038;-83
2022/05/08 07:51:29;;;;;;;12.02;10.80;;;;;;;;;;4924486;29;20386;-88
2022/05/08 07:53:55;;;;;;;10.77;9.68;;;;;;;;;;4919845;29;20040;-82
2022/05/08 07:56:21;;;;;;;13.82;11.48;;;;;;;;;;4919836;29;20028;-87
2022/05/08 07:58:47;;;;;;;13.40;12.07;;;;;;;;;;4919774;29;20083;-84
2022/05/08 08:01:14;;;;;;;16.52;11.65;;;;;;;;;;4918967;29;20036;-84
2022/05/08 08:03:41;;;;;;;9.90;8.65;;;;;;;;;;4920069;29;20036;-85
2022/05/08 08:06:07;;;;;;;14.23;10.90;;;;;;;;;;4918458;29;20040;-86
2022/05/08 08:08:34;;;;;;;10.15;9.13;;;;;;;;;;4919317;29;20064;-84
2022/05/08 08:11:03;;;;;;;12.38;11.07;;;;;;;;;;4939200;29;20366;-80
2022/05/08 08:13:31;;;;;;;11.90;10.05;;;;;;;;;;4938853;29;20050;-84
2022/05/08 08:15:58;;;;;;;13.25;11.85;;;;;;;;;;4921697;29;20039;-86
2022/05/08 08:18:24;;;;;;;11.35;10.13;;;;;;;;;;4939041;29;20036;-86
2022/05/08 08:20:50;;;;;;;11.70;9.77;;;;;;;;;;4939154;29;20023;-88
2022/05/08 08:23:17;;;;;;;13.68;12.18;;;;;;;;;;4922477;29;20425;-88
2022/05/08 08:25:45;;;;;;;12.63;11.30;;;;;;;;;;4922150;29;20052;-86
2022/05/08 08:28:11;;;;;;;9.63;8.35;;;;;;;;;;4922391;29;20024;-89
2022/05/08 08:30:37;;;;;;;12.25;9.98;;;;;;;;;;4922213;29;20119;-85
2022/05/08 08:33:03;;;;;;;9.68;8.63;;;;;;;;;;4921920;29;20059;-86
2022/05/08 08:35:31;;;;;;;9.65;8.60;;;;;;;;;;4921826;29;20047;-86
2022/05/08 08:37:57;;;;;;;8.95;8.05;;;;;;;;;;4938174;29;20453;-86
2022/05/08 08:40:24;;;;;;;11.13;9.05;;;;;;;;;;4938202;29;20123;-87
2022/05/08 08:42:51;;;;;;;11.25;10.05;;;;;;;;;;4938213;29;20079;-86
2022/05/08 08:48:12;;;;;;;12.18;9.63;;;;;;;;;;4939602;29;20549;-85
2022/05/08 08:50:38;;;;;;;11.07;7.63;;;;;;;;;;4937514;29;20122;-86
2022/05/08 08:53:05;;;;;;;10.48;8.75;;;;;;;;;;4937468;29;20400;-85
2022/05/08 08:55:31;;;;;;;11.57;9.18;;;;;;;;;;4937355;29;20413;-81
2022/05/08 08:57:57;;;;;;;9.57;8.05;;;;;;;;;;4937218;29;20040;-81
2022/05/08 09:00:24;;;;;;;11.20;8.02;;;;;;;;;;4937244;29;20028;-87
2022/05/08 09:02:53;;;;;;;7.15;6.13;;;;;;;;;;4937317;29;20066;-82
2022/05/08 09:05:19;;;;;;;10.05;7.68;;;;;;;;;;4937188;29;20066;-85
2022/05/08 09:07:46;;;;;;;9.07;6.45;;;;;;;;;;4937119;29;20059;-87
2022/05/08 09:10:14;;;;;;;9.27;7.53;;;;;;;;;;4937060;29;20027;-86
2022/05/08 09:12:41;;;;;;;11.05;7.07;;;;;;;;;;4937209;29;20028;-86
2022/05/08 09:15:36;;;;;;;6.72;6.03;;;;;;;;;;4937033;29;20118;-84
2022/05/08 09:18:04;;;;;;;11.10;7.75;;;;;;;;;;4920915;29;20087;-85
2022/05/08 09:20:35;;;;;;;8.82;6.75;;;;;;;;;;4937104;29;20027;-86
2022/05/08 09:23:29;;;;;;;8.40;6.10;;;;;;;;;;4937135;29;20054;-88
2022/05/08 09:25:59;;;;;;;10.80;7.50;;;;;;;;;;4953079;29;20096;-86
2022/05/08 09:28:28;;;;;;;9.82;7.50;;;;;;;;;;4937103;29;20022;-93
2022/05/08 09:30:58;;;;;;;7.95;6.43;;;;;;;;;;4938106;29;20035;-92
2022/05/08 09:33:24;;;;;;;13.55;7.43;;;;;;;;;;4942611;29;20024;-85
2022/05/08 09:35:51;;;;;;;8.40;5.93;;;;;;;;;;4936190;29;20039;-84
2022/05/08 09:38:17;;;;;;;9.10;7.10;;;;;;;;;;4936511;29;20043;-87
2022/05/08 09:40:45;;;;;;;11.38;6.32;;;;;;;;;;4936520;29;20027;-85
2022/05/08 09:43:28;;;;;;;11.75;7.03;;;;;;;;;;4936775;29;20023;-84
2022/05/08 09:45:57;;;;;;;8.63;6.28;;;;;;;;;;4935651;29;20035;-94
2022/05/08 09:48:26;;;;;;;8.15;6.05;;;;;;;;;;4936415;29;20031;-92
2022/05/08 09:50:54;;;;;;;10.25;7.20;;;;;;;;;;4934274;29;20036;-92
2022/05/08 09:53:22;;;;;;;8.15;7.22;;;;;;;;;;4919865;29;20032;-90
2022/05/08 09:55:48;;;;;;;8.90;7.63;;;;;;;;;;4937762;29;20034;-85
2022/05/08 09:58:15;;;;;;;10.00;6.35;;;;;;;;;;4946440;29;20115;-93
2022/05/08 10:00:42;;;;;;;7.95;7.15;;;;;;;;;;4947409;29;20055;-92
2022/05/08 10:03:08;;;;;;;7.10;6.40;;;;;;;;;;4941264;29;20051;-91
2022/05/08 10:05:37;;;;;;;7.90;6.60;;;;;;;;;;4939631;29;20020;-94
2022/05/08 10:08:04;;;;;;;8.07;7.20;;;;;;;;;;4940649;29;20031;-92
2022/05/08 10:16:40;;;;;;;9.35;6.38;;;;;;;;;;4938832;29;20106;-91
2022/05/08 10:19:27;;;;;;;9.77;6.75;;;;;;;;;;4937965;29;20076;-91
2022/05/08 10:22:02;;;;;;;9.00;7.22;;;;;;;;;;4942637;29;20047;-90
2022/05/08 10:24:30;;;;;;;8.73;5.68;;;;;;;;;;4937371;29;20492;-90
2022/05/08 10:27:15;;;;;;;6.95;6.10;;;;;;;;;;4920649;29;20050;-83
2022/05/08 10:29:43;;;;;;;6.85;6.13;;;;;;;;;;4923000;29;20032;-90
2022/05/08 10:32:10;;;;;;;13.43;6.90;;;;;;;;;;4917618;29;20032;-91
2022/05/08 10:34:40;;;;;;;7.05;5.68;;;;;;;;;;4917640;29;20198;-92
2022/05/08 10:37:12;;;;;;;6.63;5.72;;;;;;;;;;4919059;29;20509;-94
2022/05/08 10:39:48;;;;;;;6.97;5.63;;;;;;;;;;4920394;29;20461;-91
2022/05/08 10:42:33;;;;;;;11.48;6.20;;;;;;;;;;4921610;29;20063;-91
2022/05/08 10:45:00;;;;;;;8.45;5.78;;;;;;;;;;4920125;29;20031;-90
2022/05/08 10:47:40;;;;;;;7.88;6.47;;;;;;;;;;4920330;29;20055;-92
2022/05/08 10:50:08;;;;;;;9.32;5.63;;;;;;;;;;4938866;29;20128;-92
2022/05/08 10:52:41;;;;;;;8.77;5.63;;;;;;;;;;4920117;29;20054;-92
2022/05/08 10:55:08;;;;;;;8.13;6.15;;;;;;;;;;4920736;29;20035;-90
2022/05/08 10:57:38;;;;;;;7.60;5.32;;;;;;;;;;4924010;29;20031;-91
2022/05/08 11:00:05;;;;;;;8.55;5.80;;;;;;;;;;4924213;29;20091;-87
2022/05/08 11:02:45;;;;;;;8.65;5.53;;;;;;;;;;4924056;29;20031;-90
2022/05/08 11:05:12;;;;;;;9.07;5.82;;;;;;;;;;4923883;29;20031;-92
2022/05/08 11:07:39;;;;;;;6.10;5.50;;;;;;;;;;4924376;29;20050;-91
2022/05/08 11:10:15;;;;;;;7.35;5.50;;;;;;;;;;4923849;29;20035;-91
2022/05/08 11:12:59;;;;;;;7.50;5.22;;;;;;;;;;4923333;29;20079;-89
2022/05/08 11:15:27;;;;;;;7.28;5.00;;;;;;;;;;4923889;29;20028;-84
2022/05/08 11:18:09;;;;;;;7.47;5.22;;;;;;;;;;4923547;29;20035;-91
2022/05/08 11:20:39;;;;;;;7.50;5.07;;;;;;;;;;4936674;29;20032;-84
2022/05/08 11:23:06;;;;;;;6.20;5.57;;;;;;;;;;4919224;29;20048;-84
2022/05/08 11:25:35;;;;;;;6.25;5.20;;;;;;;;;;4920803;29;20481;-85
2022/05/08 11:28:01;;;;;;;5.97;5.38;;;;;;;;;;4920511;29;20107;-84
2022/05/08 11:30:27;;;;;;;8.20;5.53;;;;;;;;;;4919334;29;20039;-86
2022/05/08 11:38:50;;;;;;;6.07;5.47;;;;;;;;;;4899365;29;20060;-88
2022/05/08 11:41:44;;;;;;;5.80;4.47;;;;;;;;;;4914411;29;20040;-85
2022/05/08 11:44:16;;;;;;;5.68;4.22;;;;;;;;;;4916200;29;20055;-80
2022/05/08 11:46:46;;;;;;;6.65;4.40;;;;;;;;;;4918959;29;20048;-83
2022/05/08 11:49:17;;;;;;;4.38;3.78;;;;;;;;;;4918675;29;20086;-86
2022/05/08 11:51:44;;;;;;;10.80;4.85;;;;;;;;;;4918492;29;20055;-82
2022/05/08 11:54:20;;;;;;;6.53;4.50;;;;;;;;;;4934390;29;20059;-84
2022/05/08 11:56:47;;;;;;;6.75;4.90;;;;;;;;;;4934651;29;20032;-85
2022/05/08 11:59:17;;;;;;;8.43;4.55;;;;;;;;;;4920386;29;20032;-86
2022/05/08 12:01:53;;;;;;;8.07;4.80;;;;;;;;;;4935100;29;20473;-87
2022/05/08 12:04:22;;;;;;;5.88;5.10;;;;;;;;;;4935215;29;20478;-87
2022/05/08 12:07:14;;;;;;;6.03;4.90;;;;;;;;;;4935289;29;20024;-86
2022/05/08 12:09:51;;;;;;;6.88;4.80;;;;;;;;;;4917699;29;20040;-87
2022/05/08 12:12:28;;;;;;;7.20;4.22;;;;;;;;;;4920402;29;20028;-86
2022/05/08 12:15:07;;;;;;;9.23;4.13;;;;;;;;;;4935419;29;20035;-88
2022/05/08 12:17:42;;;;;;;9.52;5.05;;;;;;;;;;4934508;29;20032;-87
2022/05/08 12:20:10;;;;;;;7.90;4.32;;;;;;;;;;4908752;29;20037;-85
2022/05/08 12:22:36;;;;;;;8.15;4.43;;;;;;;;;;4910104;29;20498;-88
2022/05/08 12:25:02;;;;;;;7.97;4.15;;;;;;;;;;4919951;29;20598;-87
2022/05/08 12:27:29;;;;;;;9.95;4.72;;;;;;;;;;4920084;29;20032;-89
2022/05/08 12:29:59;;;;;;;5.00;4.50;;;;;;;;;;4919842;29;20028;-90
2022/05/08 12:32:25;;;;;;;5.93;3.60;;;;;;;;;;4921298;29;20028;-95
2022/05/08 12:35:00;;;;;;;5.93;3.40;;;;;;;;;;4919982;29;20031;-87
2022/05/08 12:37:38;;;;;;;5.97;3.80;;;;;;;;;;4925936;29;20045;-95
2022/05/08 12:40:44;;;;;;;6.97;3.60;;;;;;;;;;4939674;29;20484;-93
2022/05/08 12:43:10;;;;;;;5.55;3.00;;;;;;;;;;4863050;29;20048;-78
2022/05/08 12:45:37;;;;;;;4.53;3.00;;;;;;;;;;4879975;29;20025;-87
2022/05/08 12:48:04;;;;;;;5.05;3.20;;;;;;;;;;4892421;29;20067;-87
2022/05/08 12:50:30;;;;;;;6.13;3.10;;;;;;;;;;4938699;29;20031;-84
2022/05/08 12:52:57;;;;;;;5.53;3.88;;;;;;;;;;4921445;29;20039;-90
2022/05/08 12:55:23;;;;;;;10.63;3.70;;;;;;;;;;4927204;29;20561;-90
2022/05/08 13:00:33;;;;;;;7.15;3.40;;;;;;;;;;4942121;29;20054;-84
2022/05/08 13:03:00;;;;;;;10.63;3.80;;;;;;;;;;4922206;29;20027;-93
2022/05/08 13:05:27;;;;;;;4.22;3.55;;;;;;;;;;4921731;29;20057;-89
2022/05/08 13:07:53;;;;;;;10.07;3.95;;;;;;;;;;4938906;29;20027;-92
2022/05/08 13:10:19;;;;;;;5.47;3.75;;;;;;;;;;4925110;29;20032;-83
2022/05/08 13:12:45;;;;;;;5.82;3.75;;;;;;;;;;4925400;29;20035;-93
2022/05/08 13:15:11;;;;;;;5.20;3.72;;;;;;;;;;4938713;29;20092;-85
2022/05/08 13:17:37;;;;;;;6.30;3.40;;;;;;;;;;4936986;29;20558;-86
2022/05/08 13:20:09;;;;;;;5.57;3.40;;;;;;;;;;4936873;29;20075;-89
2022/05/08 13:22:40;;;;;;;7.30;3.75;;;;;;;;;;4942259;29;20058;-88
2022/05/08 13:25:08;;;;;;;5.97;3.65;;;;;;;;;;4921363;29;20079;-88
2022/05/08 13:27:34;;;;;;;5.95;3.10;;;;;;;;;;4921399;29;20047;-86
2022/05/08 13:30:02;;;;;;;8.20;3.65;;;;;;;;;;4921284;29;20032;-88
2022/05/08 13:32:28;;;;;;;5.88;3.45;;;;;;;;;;4921147;29;20031;-88
2022/05/08 13:34:54;;;;;;;5.75;3.35;;;;;;;;;;4921365;29;20433;-88
2022/05/08 13:37:22;;;;;;;5.32;3.97;;;;;;;;;;4925439;29;20067;-85
2022/05/08 13:39:48;;;;;;;10.85;3.97;;;;;;;;;;4921971;29;20043;-86
2022/05/08 13:42:16;;;;;;;4.35;3.80;;;;;;;;;;4921051;29;20047;-87
2022/05/08 13:44:43;;;;;;;4.63;3.92;;;;;;;;;;4937232;29;20023;-85
2022/05/08 13:47:10;;;;;;;6.68;4.00;;;;;;;;;;4920593;29;20027;-86
2022/05/08 13:49:36;;;;;;;5.55;3.60;;;;;;;;;;4936039;29;20028;-90
2022/05/08 13:52:06;;;;;;;6.65;3.65;;;;;;;;;;4952850;29;20031;-90
2022/05/08 13:54:37;;;;;;;5.75;3.50;;;;;;;;;;4936912;29;20059;-87
2022/05/08 13:57:07;;;;;;;9.10;3.67;;;;;;;;;;4937748;29;20469;-84
2022/05/08 13:59:33;;;;;;;6.78;3.90;;;;;;;;;;4935991;29;20096;-86
2022/05/08 14:01:59;;;;;;;5.25;3.67;;;;;;;;;;4936524;29;20036;-87
2022/05/08 14:04:28;;;;;;;4.00;3.60;;;;;;;;;;4936568;29;20091;-88
2022/05/08 14:06:54;;;;;;;5.88;4.00;;;;;;;;;;4936147;29;20035;-85
2022/05/08 14:09:21;;;;;;;7.25;3.95;;;;;;;;;;4936141;29;20027;-86
2022/05/08 14:11:54;;;;;;;5.95;4.03;;;;;;;;;;4935913;29;20090;-85
2022/05/08 14:14:25;;;;;;;8.40;5.15;;;;;;;;;;4935189;29;20485;-90
2022/05/08 14:16:51;;;;;;;6.00;4.90;;;;;;;;;;4937520;29;20027;-88
2022/05/08 14:19:17;;;;;;;6.15;4.38;;;;;;;;;;4936230;29;20036;-85
2022/05/08 14:21:44;;;;;;;6.85;3.92;;;;;;;;;;4935861;29;20032;-89
2022/05/08 14:24:10;;;;;;;7.55;4.18;;;;;;;;;;4936720;29;20478;-92
2022/05/08 14:26:36;;;;;;;9.30;4.40;;;;;;;;;;4936630;29;20023;-91
2022/05/08 14:29:02;;;;;;;7.00;4.40;;;;;;;;;;4938146;29;20079;-93
2022/05/08 14:36:58;;;;;;;6.15;4.22;;;;;;;;;;4937370;29;20078;-85
2022/05/08 14:39:25;;;;;;;7.80;4.68;;;;;;;;;;4936270;29;20481;-86
2022/05/08 14:41:51;;;;;;;5.93;4.95;;;;;;;;;;4935923;29;20059;-88
2022/05/08 14:44:18;;;;;;;7.82;5.15;;;;;;;;;;4936163;29;20102;-80
2022/05/08 14:46:44;;;;;;;9.63;6.88;;;;;;;;;;4937380;29;20038;-86
2022/05/08 14:49:10;;;;;;;9.80;5.60;;;;;;;;;;4945301;29;20487;-88
2022/05/08 14:51:36;;;;;;;9.00;6.55;;;;;;;;;;4935694;29;20063;-85
2022/05/08 14:54:03;;;;;;;7.40;6.25;;;;;;;;;;4935575;29;20123;-84
2022/05/08 14:56:29;;;;;;;10.63;6.22;;;;;;;;;;4935836;29;20024;-85
2022/05/08 14:58:56;;;;;;;6.78;5.88;;;;;;;;;;4935525;29;20071;-85
2022/05/08 15:01:22;;;;;;;8.25;6.93;;;;;;;;;;4935655;29;20478;-85
2022/05/08 15:03:49;;;;;;;8.48;6.40;;;;;;;;;;4935606;29;20036;-83
2022/05/08 15:06:15;;;;;;;12.60;6.50;;;;;;;;;;4935548;29;20058;-85
2022/05/08 15:08:42;;;;;;;10.68;6.13;;;;;;;;;;4935557;29;20473;-85
2022/05/08 15:11:08;;;;;;;7.57;6.72;;;;;;;;;;4936459;29;20050;-85
2022/05/08 15:13:37;;;;;;;8.88;6.28;;;;;;;;;;4936407;29;20028;-85
2022/05/08 15:16:04;;;;;;;9.25;6.85;;;;;;;;;;4935996;29;20118;-86
2022/05/08 15:18:48;;;;;;;9.70;6.88;;;;;;;;;;4937286;29;20043;-83
2022/05/08 15:21:14;;;;;;;8.82;6.40;;;;;;;;;;4936919;29;20023;-83
2022/05/08 15:23:43;;;;;;;8.38;6.70;;;;;;;;;;4931593;29;20083;-79
2022/05/08 15:26:10;;;;;;;11.55;7.22;;;;;;;;;;4915985;29;20032;-83